METAR Data
IDs: Format: Raw Decoded Include TAF

Data at: 1620 UTC 19 Sep 2018

METAR for:TISX (St Croix/Rohlsen Arp, --, VI)
Text:TISX 191453Z 11014KT 10SM FEW024 32/26 A3001 RMK AO2 SLP162 60003 T03220261 51008 $
Temperature: 32.2°C ( 90°F)
Dewpoint: 26.1°C ( 79°F) [RH = 70%]
Pressure (altimeter):30.01 inches Hg (1016.3 mb) [Sea level pressure: 1016.2 mb]
Winds:from the ESE (110 degrees) at 16 MPH (14 knots; 7.2 m/s)
Visibility:10 or more sm (16+ km)
Ceiling:at least 12,000 feet AGL
Clouds: few clouds at 2400 feet AGL
QC Flag:SOME DATA ABOVE MAY BE INACCURATE!!!"$" is an indication the sensor requires maintenance.